Time;durP1;ratioP1;P1;durP2;ratioP2;P2;SDS_P1;SDS_P2;PMS_P1;PMS_P2;Temp;Humidity;BMP_temperature;BMP_pressure;BME280_temperature;BME280_humidity;BME280_pressure;Samples;Min_cycle;Max_cycle;Signal;HPM_P1;HPM_P2
2023/09/25 00:00:35;;;;;;;6.90;4.65;;;13.60;99.90;;;;;;5106941;28;20031;-68
2023/09/25 00:03:04;;;;;;;6.78;4.78;;;13.60;99.90;;;;;;5106016;27;20028;-68
2023/09/25 00:05:30;;;;;;;7.32;4.85;;;13.60;99.90;;;;;;5106157;28;20031;-68
2023/09/25 00:07:56;;;;;;;8.80;5.05;;;13.60;99.90;;;;;;5103033;28;20499;-68
2023/09/25 00:10:23;;;;;;;6.20;4.78;;;13.60;99.90;;;;;;5106933;28;20106;-69
2023/09/25 00:12:49;;;;;;;7.03;5.13;;;13.60;99.90;;;;;;5102936;28;20509;-68
2023/09/25 00:15:15;;;;;;;8.93;5.38;;;13.60;99.90;;;;;;5105768;28;20036;-68
2023/09/25 00:17:43;;;;;;;7.88;5.40;;;13.60;99.90;;;;;;5103575;28;20046;-68
2023/09/25 00:20:12;;;;;;;7.43;5.05;;;13.60;99.90;;;;;;5102377;28;20571;-68
2023/09/25 00:22:42;;;;;;;7.68;5.50;;;13.60;99.90;;;;;;5106329;28;20080;-67
2023/09/25 00:25:08;;;;;;;8.10;5.00;;;13.60;99.90;;;;;;5106144;28;20026;-68
2023/09/25 00:27:34;;;;;;;7.28;5.07;;;13.60;99.90;;;;;;5104129;28;20032;-68
2023/09/25 00:30:03;;;;;;;6.82;4.10;;;13.60;99.90;;;;;;5104671;28;20460;-68
2023/09/25 00:32:29;;;;;;;6.95;5.00;;;13.60;99.90;;;;;;5106387;28;20094;-68
2023/09/25 00:34:54;;;;;;;6.20;5.13;;;13.60;99.90;;;;;;5104509;28;20157;-68
2023/09/25 00:37:21;;;;;;;7.50;4.40;;;13.60;99.90;;;;;;5105934;28;20023;-68
2023/09/25 00:39:48;;;;;;;5.90;4.30;;;13.60;99.90;;;;;;5105030;28;20107;-68
2023/09/25 00:42:14;;;;;;;5.50;4.35;;;13.60;99.90;;;;;;5106070;28;20131;-68
2023/09/25 00:44:39;;;;;;;8.07;4.72;;;13.60;99.90;;;;;;5105562;28;20095;-68
2023/09/25 00:47:08;;;;;;;6.55;4.93;;;13.60;99.90;;;;;;5106045;28;20035;-68
2023/09/25 00:49:35;;;;;;;7.72;4.25;;;13.60;99.90;;;;;;5104557;28;20032;-68
2023/09/25 00:52:02;;;;;;;4.85;3.97;;;13.60;99.90;;;;;;5104327;28;20028;-68
2023/09/25 00:54:31;;;;;;;7.43;5.07;;;13.60;99.90;;;;;;5104132;28;20080;-68
2023/09/25 00:56:58;;;;;;;5.40;4.43;;;13.50;99.90;;;;;;5103461;28;20439;-68
2023/09/25 00:59:26;;;;;;;5.18;4.10;;;13.60;99.90;;;;;;5105997;28;20023;-68
2023/09/25 01:01:53;;;;;;;7.55;5.10;;;13.50;99.90;;;;;;5104307;28;20055;-68
2023/09/25 01:04:19;;;;;;;5.75;4.45;;;13.50;99.90;;;;;;5105361;28;20114;-68
2023/09/25 01:06:45;;;;;;;5.82;3.83;;;13.50;99.90;;;;;;5103121;28;20529;-68
2023/09/25 01:09:12;;;;;;;5.57;4.13;;;13.50;99.90;;;;;;5104076;28;20031;-68
2023/09/25 01:11:42;;;;;;;5.53;4.22;;;13.50;99.90;;;;;;5105400;28;20536;-68
2023/09/25 01:14:09;;;;;;;7.60;4.25;;;13.50;99.90;;;;;;5103689;28;20126;-68
2023/09/25 01:16:36;;;;;;;5.82;4.35;;;13.50;99.90;;;;;;5103407;28;20028;-68
2023/09/25 01:19:06;;;;;;;7.53;4.57;;;13.50;99.90;;;;;;5102145;28;20034;-68
2023/09/25 01:21:35;;;;;;;6.65;4.32;;;13.50;99.90;;;;;;5103744;28;20034;-68
2023/09/25 01:24:02;;;;;;;5.40;4.35;;;13.50;99.90;;;;;;5097933;28;20059;-68
2023/09/25 01:26:28;;;;;;;5.75;4.20;;;13.50;99.90;;;;;;5103744;28;20032;-67
2023/09/25 01:28:54;;;;;;;4.90;4.30;;;13.50;99.90;;;;;;5103568;28;20039;-68
2023/09/25 01:31:21;;;;;;;6.60;4.20;;;13.40;99.90;;;;;;5105260;28;20036;-68
2023/09/25 01:33:46;;;;;;;7.70;4.55;;;13.50;99.90;;;;;;5103522;28;20146;-68
2023/09/25 01:36:12;;;;;;;5.93;4.40;;;13.40;99.90;;;;;;5103782;28;20496;-68
2023/09/25 01:38:38;;;;;;;7.72;4.70;;;13.40;99.90;;;;;;5099584;28;20036;-68
2023/09/25 01:41:04;;;;;;;7.63;5.28;;;13.40;99.90;;;;;;5102803;28;20039;-68
2023/09/25 01:43:30;;;;;;;8.90;5.07;;;13.40;99.90;;;;;;5101809;28;20028;-68
2023/09/25 01:45:56;;;;;;;6.30;4.75;;;13.30;99.90;;;;;;5103800;28;20028;-68
2023/09/25 01:48:21;;;;;;;7.68;5.25;;;13.30;99.90;;;;;;5102886;28;20105;-68
2023/09/25 01:50:47;;;;;;;7.28;4.85;;;13.30;99.90;;;;;;5103609;28;20031;-68
2023/09/25 01:53:13;;;;;;;5.60;4.40;;;13.30;99.90;;;;;;5103028;28;20028;-68
2023/09/25 01:55:40;;;;;;;10.43;5.10;;;13.30;99.90;;;;;;5101024;28;20722;-67
2023/09/25 01:58:09;;;;;;;7.28;5.00;;;13.30;99.90;;;;;;5103440;28;20730;-68
2023/09/25 02:00:35;;;;;;;6.68;5.07;;;13.20;99.90;;;;;;5103265;28;20036;-68
2023/09/25 02:03:01;;;;;;;8.52;5.03;;;13.20;99.90;;;;;;5104605;28;20023;-68
2023/09/25 02:05:27;;;;;;;5.80;4.40;;;13.20;99.90;;;;;;5102958;28;20028;-68
2023/09/25 02:07:53;;;;;;;7.07;4.78;;;13.20;99.90;;;;;;5104544;28;20072;-68
2023/09/25 02:10:19;;;;;;;7.22;4.85;;;13.20;99.90;;;;;;5103267;28;20027;-68
2023/09/25 02:12:45;;;;;;;9.02;4.82;;;13.20;99.90;;;;;;5103237;28;20050;-67
2023/09/25 02:15:11;;;;;;;5.80;4.60;;;13.20;99.90;;;;;;5103112;28;20525;-68
2023/09/25 02:17:37;;;;;;;7.07;5.47;;;13.20;99.90;;;;;;5101402;28;20028;-68
2023/09/25 02:20:17;;;;;;;7.60;5.05;;;13.10;99.90;;;;;;5103843;28;20038;-68
2023/09/25 02:22:44;;;;;;;8.65;5.15;;;13.20;99.90;;;;;;5103147;28;20056;-68
2023/09/25 02:25:10;;;;;;;7.47;4.75;;;13.20;99.90;;;;;;5096709;28;20031;-68
2023/09/25 02:27:36;;;;;;;8.68;4.60;;;13.20;99.90;;;;;;5106994;28;20040;-68
2023/09/25 02:30:03;;;;;;;8.27;4.88;;;13.10;99.90;;;;;;5108839;28;20114;-68
2023/09/25 02:32:29;;;;;;;5.70;4.63;;;13.10;99.90;;;;;;5107537;28;20043;-68
2023/09/25 02:34:55;;;;;;;6.45;4.53;;;13.10;99.90;;;;;;5106848;28;20027;-68
2023/09/25 02:37:21;;;;;;;9.95;6.32;;;13.10;99.90;;;;;;5106640;28;20056;-68
2023/09/25 02:39:47;;;;;;;9.63;6.38;;;13.10;99.90;;;;;;5107150;28;20028;-68
2023/09/25 02:42:12;;;;;;;8.75;6.00;;;13.00;99.90;;;;;;5106883;28;20028;-68
2023/09/25 02:44:39;;;;;;;9.00;5.78;;;13.00;99.90;;;;;;5108117;28;20041;-67
2023/09/25 02:47:05;;;;;;;10.63;6.13;;;13.00;99.90;;;;;;5108166;28;20072;-68
2023/09/25 02:49:30;;;;;;;9.00;6.25;;;13.00;99.90;;;;;;5106759;28;20789;-68
2023/09/25 02:51:56;;;;;;;8.75;6.50;;;12.90;99.90;;;;;;5104583;28;20066;-68
2023/09/25 02:54:22;;;;;;;10.10;6.45;;;12.90;99.90;;;;;;5107813;28;20079;-68
2023/09/25 02:56:48;;;;;;;9.70;6.07;;;12.90;99.90;;;;;;5106426;28;20057;-69
2023/09/25 02:59:14;;;;;;;7.78;5.75;;;12.90;99.90;;;;;;5106819;28;20126;-68
2023/09/25 03:01:39;;;;;;;8.10;6.05;;;12.90;99.90;;;;;;5106802;28;20123;-68
2023/09/25 03:04:05;;;;;;;8.63;5.57;;;12.90;99.90;;;;;;5106459;28;20028;-68
2023/09/25 03:06:31;;;;;;;9.25;5.68;;;12.80;99.90;;;;;;5103247;28;20930;-68
2023/09/25 03:08:56;;;;;;;7.15;5.05;;;12.80;99.90;;;;;;5108073;28;20027;-68
2023/09/25 03:11:22;;;;;;;7.00;5.00;;;12.80;99.90;;;;;;5107449;27;20645;-68
2023/09/25 03:13:49;;;;;;;6.55;4.93;;;12.80;99.90;;;;;;5107860;28;20658;-68
2023/09/25 03:16:16;;;;;;;6.57;5.13;;;12.80;99.90;;;;;;5107859;28;20027;-68
2023/09/25 03:18:42;;;;;;;7.80;4.78;;;12.80;99.90;;;;;;5105784;28;20031;-68
2023/09/25 03:21:12;;;;;;;9.05;4.70;;;12.80;99.90;;;;;;5107787;28;20570;-68
2023/09/25 03:23:42;;;;;;;6.00;4.78;;;12.70;99.90;;;;;;5095408;28;20400;-68
2023/09/25 03:26:18;;;;;;;7.03;4.68;;;12.70;99.90;;;;;;5107541;28;20027;-68
2023/09/25 03:28:45;;;;;;;10.45;4.50;;;12.70;99.90;;;;;;5105286;28;20027;-67
2023/09/25 03:31:12;;;;;;;5.93;4.45;;;12.60;99.90;;;;;;5105824;28;20062;-68
2023/09/25 03:33:41;;;;;;;6.50;5.10;;;12.60;99.90;;;;;;5105882;28;20034;-68
2023/09/25 03:36:07;;;;;;;6.00;4.03;;;12.60;99.90;;;;;;5105580;28;20080;-68
2023/09/25 03:38:35;;;;;;;6.93;4.90;;;12.60;99.90;;;;;;5104443;28;20039;-69
2023/09/25 03:41:01;;;;;;;6.00;4.53;;;12.50;99.90;;;;;;5105424;28;20040;-68
2023/09/25 03:43:27;;;;;;;6.78;4.85;;;12.50;99.90;;;;;;5106836;28;20024;-68
2023/09/25 03:45:53;;;;;;;7.63;4.28;;;12.50;99.90;;;;;;5103700;28;20024;-68
2023/09/25 03:48:21;;;;;;;7.72;4.85;;;12.50;99.90;;;;;;5105554;28;20028;-68
2023/09/25 03:50:47;;;;;;;6.40;4.53;;;12.40;99.90;;;;;;5105478;28;20043;-68
2023/09/25 03:53:13;;;;;;;6.13;4.07;;;12.50;99.90;;;;;;5105808;28;20043;-68
2023/09/25 03:55:40;;;;;;;8.73;4.93;;;12.40;99.90;;;;;;5105311;28;20082;-68
2023/09/25 03:58:06;;;;;;;8.43;5.05;;;12.40;99.90;;;;;;5106758;28;20035;-68
2023/09/25 04:00:32;;;;;;;6.20;4.53;;;12.40;99.90;;;;;;5107002;28;20444;-68
2023/09/25 04:02:58;;;;;;;6.40;4.47;;;12.40;99.90;;;;;;5106853;28;20042;-68
2023/09/25 04:05:24;;;;;;;7.00;4.78;;;12.40;99.90;;;;;;5107214;28;20024;-68
2023/09/25 04:07:50;;;;;;;7.18;5.00;;;12.40;99.90;;;;;;5104844;28;20543;-68
2023/09/25 04:10:16;;;;;;;5.97;4.65;;;12.40;99.90;;;;;;5106762;28;20028;-68
2023/09/25 04:12:41;;;;;;;6.68;4.20;;;12.40;99.90;;;;;;5107018;28;20038;-67
2023/09/25 04:15:13;;;;;;;5.22;4.13;;;12.40;99.90;;;;;;5106562;28;20502;-69
2023/09/25 04:17:40;;;;;;;9.23;4.93;;;12.30;99.90;;;;;;5106533;27;20475;-68
2023/09/25 04:20:15;;;;;;;6.10;4.30;;;12.40;99.90;;;;;;5103929;28;20116;-68
2023/09/25 04:22:41;;;;;;;8.60;5.00;;;12.40;99.90;;;;;;5106683;28;20031;-68
2023/09/25 04:25:09;;;;;;;5.75;4.45;;;12.30;99.90;;;;;;5104048;28;20030;-68
2023/09/25 04:27:38;;;;;;;8.77;5.15;;;12.30;99.90;;;;;;5106253;28;20031;-68
2023/09/25 04:30:04;;;;;;;6.68;4.68;;;12.30;99.90;;;;;;5106648;28;20030;-68
2023/09/25 04:32:32;;;;;;;7.85;5.40;;;12.30;99.90;;;;;;5106243;28;20063;-68
2023/09/25 04:34:58;;;;;;;5.50;4.28;;;12.40;99.90;;;;;;5106247;28;20028;-68
2023/09/25 04:37:25;;;;;;;7.63;5.30;;;12.40;99.90;;;;;;5105404;28;20475;-68
2023/09/25 04:39:50;;;;;;;6.25;5.00;;;12.40;99.90;;;;;;5106305;28;20076;-68
2023/09/25 04:42:16;;;;;;;6.28;4.90;;;12.40;99.90;;;;;;5106234;28;20036;-68
2023/09/25 04:44:42;;;;;;;10.23;5.18;;;12.40;99.90;;;;;;5104541;28;20091;-68
2023/09/25 04:47:08;;;;;;;6.70;4.97;;;12.40;99.90;;;;;;5105353;28;20035;-68
2023/09/25 04:49:34;;;;;;;7.50;5.05;;;12.40;99.90;;;;;;5104468;28;20561;-68
2023/09/25 04:52:00;;;;;;;6.07;4.63;;;12.40;99.90;;;;;;5105995;28;20139;-68
2023/09/25 04:54:25;;;;;;;6.88;4.80;;;12.40;99.90;;;;;;5105666;28;20111;-68
2023/09/25 04:56:51;;;;;;;6.65;4.75;;;12.40;99.90;;;;;;5104412;28;20027;-67
2023/09/25 04:59:17;;;;;;;9.93;4.72;;;12.40;99.90;;;;;;5104182;28;20077;-67
2023/09/25 05:01:44;;;;;;;6.40;4.60;;;12.40;99.90;;;;;;5105185;28;20487;-68
2023/09/25 05:04:10;;;;;;;8.95;5.03;;;12.40;99.90;;;;;;5103492;28;20027;-68
2023/09/25 05:06:35;;;;;;;8.15;5.25;;;12.40;99.90;;;;;;5105065;28;20028;-68
2023/09/25 05:09:02;;;;;;;6.15;4.70;;;12.40;99.90;;;;;;5102073;28;20032;-68
2023/09/25 05:11:28;;;;;;;7.60;5.50;;;12.40;99.90;;;;;;5105387;28;20042;-68
2023/09/25 05:13:54;;;;;;;7.35;4.75;;;12.40;99.90;;;;;;5104140;28;20035;-68
2023/09/25 05:16:19;;;;;;;6.88;4.95;;;12.40;99.90;;;;;;5101959;28;20070;-69
2023/09/25 05:18:45;;;;;;;5.57;4.65;;;12.40;99.90;;;;;;5105221;28;20040;-68
2023/09/25 05:21:11;;;;;;;7.15;5.28;;;12.40;99.90;;;;;;5104992;28;20108;-68
2023/09/25 05:23:37;;;;;;;8.77;5.68;;;12.40;99.90;;;;;;5105058;28;20024;-68
2023/09/25 05:26:02;;;;;;;9.90;5.32;;;12.40;99.90;;;;;;5098362;28;20059;-68
2023/09/25 05:28:29;;;;;;;9.50;5.88;;;12.40;99.90;;;;;;5101102;28;20442;-68
2023/09/25 05:30:55;;;;;;;6.78;5.20;;;12.40;99.90;;;;;;5103031;27;20043;-68
2023/09/25 05:33:22;;;;;;;6.00;5.03;;;12.40;99.90;;;;;;5104941;28;20104;-68
2023/09/25 05:35:48;;;;;;;8.15;5.65;;;12.50;99.90;;;;;;5105370;28;20027;-68
2023/09/25 05:38:14;;;;;;;6.38;5.25;;;12.40;99.90;;;;;;5104695;28;20054;-68
2023/09/25 05:40:40;;;;;;;7.78;5.53;;;12.40;99.90;;;;;;5105319;28;20032;-68
2023/09/25 05:43:06;;;;;;;8.00;5.35;;;12.40;99.90;;;;;;5104819;28;20059;-68
2023/09/25 05:45:32;;;;;;;7.20;5.38;;;12.40;99.90;;;;;;5104645;28;20058;-68
2023/09/25 05:47:57;;;;;;;8.43;5.03;;;12.40;99.90;;;;;;5104863;28;20059;-67
2023/09/25 05:50:26;;;;;;;8.38;5.30;;;12.40;99.90;;;;;;5104747;28;20070;-68
2023/09/25 05:52:52;;;;;;;9.52;5.53;;;12.40;99.90;;;;;;5103867;28;20220;-68
2023/09/25 05:55:18;;;;;;;8.20;5.50;;;12.50;99.90;;;;;;5104648;28;20138;-68
2023/09/25 05:57:43;;;;;;;8.05;5.82;;;12.50;99.90;;;;;;5096691;28;20032;-68
2023/09/25 06:00:13;;;;;;;6.72;5.32;;;12.50;99.90;;;;;;5104899;28;20159;-68
2023/09/25 06:02:40;;;;;;;7.65;5.00;;;12.50;99.90;;;;;;5107465;27;20043;-68
2023/09/25 06:05:07;;;;;;;8.15;4.93;;;12.50;99.90;;;;;;5109214;28;20122;-68
2023/09/25 06:07:35;;;;;;;7.00;5.30;;;12.60;99.90;;;;;;5108860;28;20019;-68
2023/09/25 06:10:04;;;;;;;7.47;5.60;;;12.60;99.90;;;;;;5108819;28;20109;-68
2023/09/25 06:12:30;;;;;;;11.95;5.30;;;12.60;99.90;;;;;;5106898;28;20058;-68
2023/09/25 06:14:55;;;;;;;7.30;5.63;;;12.60;99.90;;;;;;5105716;28;20445;-68
2023/09/25 06:17:21;;;;;;;8.98;5.70;;;12.70;99.90;;;;;;5108585;28;20036;-67
2023/09/25 06:19:47;;;;;;;6.65;5.25;;;12.70;99.90;;;;;;5108618;28;20046;-68
2023/09/25 06:22:13;;;;;;;6.95;4.85;;;12.80;99.90;;;;;;5108663;28;20035;-68
2023/09/25 06:24:39;;;;;;;8.07;5.03;;;12.80;99.90;;;;;;5108850;28;20767;-68
2023/09/25 06:27:04;;;;;;;6.72;4.97;;;12.90;99.90;;;;;;5108809;28;20596;-68
2023/09/25 06:29:31;;;;;;;9.00;5.57;;;12.90;99.90;;;;;;5108956;27;20118;-68
2023/09/25 06:31:57;;;;;;;10.05;4.97;;;13.00;99.90;;;;;;5108722;28;20383;-68
2023/09/25 06:34:22;;;;;;;7.38;5.05;;;13.00;99.90;;;;;;5108143;28;20032;-68
2023/09/25 06:36:48;;;;;;;7.68;4.90;;;13.10;99.90;;;;;;5106455;28;20093;-67
2023/09/25 06:39:14;;;;;;;6.55;4.85;;;13.20;99.90;;;;;;5108007;28;20027;-68
2023/09/25 06:41:43;;;;;;;8.80;4.75;;;13.20;99.90;;;;;;5108407;28;20042;-68
2023/09/25 06:44:19;;;;;;;7.63;4.75;;;13.30;99.90;;;;;;5106770;28;20028;-68
2023/09/25 06:46:45;;;;;;;7.93;5.10;;;13.40;99.90;;;;;;5108211;28;20702;-67
2023/09/25 06:49:11;;;;;;;8.13;5.43;;;13.40;99.90;;;;;;5108481;28;20020;-68
2023/09/25 06:51:37;;;;;;;8.75;4.93;;;13.60;99.90;;;;;;5108673;28;20080;-67
2023/09/25 06:54:03;;;;;;;5.75;4.65;;;13.60;99.90;;;;;;5108099;28;20050;-68
2023/09/25 06:56:28;;;;;;;8.65;4.85;;;13.70;99.90;;;;;;5106567;28;20078;-68
2023/09/25 06:58:54;;;;;;;8.15;5.10;;;13.80;99.90;;;;;;5108006;28;20854;-68
2023/09/25 07:01:21;;;;;;;6.88;5.10;;;13.90;99.90;;;;;;5108120;28;20137;-68
2023/09/25 07:03:47;;;;;;;9.95;6.07;;;14.00;99.90;;;;;;5104621;27;20016;-69
2023/09/25 07:06:13;;;;;;;11.73;6.28;;;14.10;99.90;;;;;;5104371;28;20027;-68
2023/09/25 07:08:38;;;;;;;6.05;4.95;;;14.30;99.90;;;;;;5107909;28;20550;-68
2023/09/25 07:11:04;;;;;;;8.95;5.07;;;14.60;99.90;;;;;;5104840;28;20028;-68
2023/09/25 07:13:32;;;;;;;8.88;5.53;;;14.80;99.90;;;;;;5104601;27;20023;-68
2023/09/25 07:16:10;;;;;;;11.10;4.63;;;14.90;99.90;;;;;;5107226;28;20035;-68
2023/09/25 07:18:39;;;;;;;6.35;4.13;;;15.10;99.90;;;;;;5100328;28;20038;-68
2023/09/25 07:21:05;;;;;;;6.25;3.92;;;15.30;99.90;;;;;;5106985;28;20122;-68
2023/09/25 07:23:31;;;;;;;6.25;4.13;;;15.50;99.90;;;;;;5107326;28;20948;-68
2023/09/25 07:26:07;;;;;;;4.65;3.53;;;15.60;99.90;;;;;;5104804;28;20032;-69
2023/09/25 07:28:33;;;;;;;6.18;3.58;;;15.70;99.90;;;;;;5103337;28;20551;-69
2023/09/25 07:31:00;;;;;;;6.13;3.30;;;16.00;99.90;;;;;;5107385;28;20047;-69
2023/09/25 07:33:30;;;;;;;5.18;3.30;;;16.20;99.90;;;;;;5099702;28;20028;-68
2023/09/25 07:35:56;;;;;;;6.03;3.58;;;16.20;99.90;;;;;;5105031;28;20550;-68
2023/09/25 07:38:22;;;;;;;4.32;2.75;;;16.40;99.90;;;;;;5107330;28;20028;-69
2023/09/25 07:40:48;;;;;;;4.70;2.70;;;16.60;99.90;;;;;;5107289;28;20394;-68
2023/09/25 07:43:19;;;;;;;3.25;2.60;;;16.60;99.90;;;;;;5107057;28;20024;-68
2023/09/25 07:45:51;;;;;;;4.13;3.20;;;16.60;99.90;;;;;;5107128;28;20036;-69
2023/09/25 07:48:17;;;;;;;5.00;3.17;;;16.60;99.90;;;;;;5103257;28;20027;-68
2023/09/25 07:50:45;;;;;;;4.75;3.75;;;16.60;99.90;;;;;;5107438;28;20032;-69
2023/09/25 07:53:14;;;;;;;4.18;3.03;;;16.50;99.90;;;;;;5107002;28;20047;-69
2023/09/25 07:55:43;;;;;;;4.47;2.80;;;16.50;99.90;;;;;;5106060;28;20426;-68
2023/09/25 07:58:11;;;;;;;4.00;3.08;;;16.50;99.90;;;;;;5102922;28;20035;-68
2023/09/25 08:00:39;;;;;;;4.07;3.50;;;16.50;99.90;;;;;;5102504;28;20055;-68
2023/09/25 08:03:09;;;;;;;4.45;2.97;;;16.60;99.90;;;;;;5099250;28;20032;-68
2023/09/25 08:05:36;;;;;;;4.00;3.00;;;16.60;99.90;;;;;;5105558;28;20031;-68
2023/09/25 08:08:02;;;;;;;3.55;2.90;;;16.70;99.90;;;;;;5102568;28;20032;-69
2023/09/25 08:10:28;;;;;;;5.57;3.00;;;16.70;99.90;;;;;;5102280;28;20027;-69
2023/09/25 08:12:54;;;;;;;4.88;2.88;;;16.70;99.90;;;;;;5103104;28;20078;-68
2023/09/25 08:15:21;;;;;;;3.80;2.78;;;16.90;99.90;;;;;;5105566;28;20043;-69
2023/09/25 08:17:48;;;;;;;4.20;2.60;;;16.90;99.60;;;;;;5104443;28;20056;-68
2023/09/25 08:20:22;;;;;;;5.13;3.17;;;16.90;99.90;;;;;;5100029;28;20119;-68
2023/09/25 08:22:49;;;;;;;3.75;2.70;;;17.00;99.40;;;;;;5105796;28;20036;-68
2023/09/25 08:25:16;;;;;;;4.95;2.92;;;17.10;99.20;;;;;;5105911;28;20035;-68
2023/09/25 08:27:43;;;;;;;5.68;3.30;;;17.00;99.70;;;;;;5106118;28;20032;-68
2023/09/25 08:30:10;;;;;;;4.32;2.78;;;17.00;99.90;;;;;;5105481;28;20024;-68
2023/09/25 08:32:36;;;;;;;3.45;2.50;;;17.10;99.40;;;;;;5104801;28;20072;-68
2023/09/25 08:35:03;;;;;;;3.97;3.00;;;17.10;99.80;;;;;;5104537;28;20074;-68
2023/09/25 08:37:29;;;;;;;4.00;3.17;;;17.20;99.40;;;;;;5103155;28;20493;-68
2023/09/25 08:39:55;;;;;;;7.85;2.97;;;17.40;98.80;;;;;;5094902;28;20053;-68
2023/09/25 08:42:22;;;;;;;4.68;2.50;;;17.40;98.40;;;;;;5104590;28;20034;-68
2023/09/25 08:44:52;;;;;;;5.63;2.97;;;17.50;98.50;;;;;;5105126;28;20079;-69
2023/09/25 08:47:22;;;;;;;5.45;3.33;;;17.60;98.30;;;;;;5105612;28;20084;-68
2023/09/25 08:49:52;;;;;;;3.30;2.80;;;17.80;98.30;;;;;;5102146;28;20027;-68
2023/09/25 08:52:20;;;;;;;3.55;3.25;;;18.00;98.00;;;;;;5102399;28;20019;-69
2023/09/25 08:54:48;;;;;;;2.55;2.35;;;18.50;97.40;;;;;;5104925;28;20069;-68
2023/09/25 08:57:15;;;;;;;3.28;2.58;;;19.10;96.80;;;;;;5103328;28;20027;-69
2023/09/25 08:59:45;;;;;;;3.20;2.53;;;19.60;95.80;;;;;;5098119;28;20131;-69
2023/09/25 09:02:12;;;;;;;3.20;2.55;;;19.90;95.10;;;;;;5103633;28;20104;-69
2023/09/25 09:04:38;;;;;;;5.45;2.97;;;20.30;94.40;;;;;;5102415;28;20036;-68
2023/09/25 09:07:08;;;;;;;3.60;2.55;;;20.60;93.30;;;;;;5102032;28;20479;-68
2023/09/25 09:09:35;;;;;;;2.67;2.08;;;20.60;93.00;;;;;;5100178;28;20034;-68
2023/09/25 09:12:01;;;;;;;2.08;1.77;;;20.60;93.80;;;;;;5104240;28;20040;-68
2023/09/25 09:14:41;;;;;;;3.70;2.05;;;20.50;94.40;;;;;;5103917;28;20107;-69
2023/09/25 09:17:09;;;;;;;2.90;2.53;;;20.40;94.30;;;;;;5104796;28;20032;-68
2023/09/25 09:19:44;;;;;;;3.42;2.53;;;20.50;93.10;;;;;;5105874;28;20038;-69
2023/09/25 09:22:10;;;;;;;3.08;2.15;;;20.40;93.10;;;;;;5104173;28;20047;-68
2023/09/25 09:24:41;;;;;;;3.80;2.05;;;20.30;93.20;;;;;;5102790;28;20031;-69
2023/09/25 09:27:09;;;;;;;4.72;2.42;;;20.30;93.40;;;;;;5104517;28;20039;-68
2023/09/25 09:29:42;;;;;;;3.85;2.50;;;20.40;93.30;;;;;;5102605;28;20077;-69
2023/09/25 09:32:09;;;;;;;3.67;2.10;;;20.40;93.10;;;;;;5104998;28;20042;-68
2023/09/25 09:34:36;;;;;;;3.65;2.85;;;20.40;92.90;;;;;;5105283;28;20051;-68
2023/09/25 09:37:02;;;;;;;3.50;2.50;;;20.40;91.80;;;;;;5101001;28;20036;-68
2023/09/25 09:39:34;;;;;;;4.00;2.17;;;20.40;91.90;;;;;;5105144;28;20023;-68
2023/09/25 09:42:05;;;;;;;4.93;2.42;;;20.30;92.70;;;;;;5103426;28;20039;-69
2023/09/25 09:44:32;;;;;;;3.45;2.75;;;20.40;92.50;;;;;;5093396;28;20032;-68
2023/09/25 09:47:05;;;;;;;3.78;2.83;;;20.50;91.80;;;;;;5103182;28;20105;-68
2023/09/25 09:49:35;;;;;;;2.47;2.28;;;20.50;91.60;;;;;;5101536;28;20023;-68
2023/09/25 09:52:02;;;;;;;3.92;2.47;;;20.40;92.10;;;;;;5104827;28;20053;-68
2023/09/25 09:54:30;;;;;;;3.38;2.38;;;20.40;92.30;;;;;;5100292;28;20125;-68
2023/09/25 09:56:59;;;;;;;5.75;2.40;;;20.60;92.50;;;;;;5101225;28;20032;-67
2023/09/25 09:59:25;;;;;;;2.60;2.33;;;20.60;91.70;;;;;;5099373;28;20035;-68
2023/09/25 10:01:52;;;;;;;3.40;2.83;;;20.80;91.70;;;;;;5104666;28;20035;-69
2023/09/25 10:04:18;;;;;;;3.70;2.63;;;20.90;90.90;;;;;;5104874;28;20088;-68
2023/09/25 10:06:58;;;;;;;3.17;2.42;;;20.90;91.20;;;;;;5103734;28;20032;-68
2023/09/25 10:09:26;;;;;;;3.40;2.80;;;21.10;90.80;;;;;;5099912;28;20122;-69
2023/09/25 10:11:54;;;;;;;3.60;2.65;;;21.50;90.20;;;;;;5101682;28;20047;-69
2023/09/25 10:14:25;;;;;;;4.60;2.40;;;21.80;87.70;;;;;;5104514;28;20035;-68
2023/09/25 10:17:05;;;;;;;5.35;2.42;;;22.10;88.30;;;;;;5102182;28;20399;-68
2023/09/25 10:19:50;;;;;;;4.25;2.35;;;22.40;84.80;;;;;;5105355;28;20024;-69
2023/09/25 10:22:22;;;;;;;3.67;2.88;;;22.60;85.20;;;;;;5097048;28;20598;-69
2023/09/25 10:24:59;;;;;;;3.60;2.65;;;22.70;83.70;;;;;;5100501;28;20415;-68
2023/09/25 10:27:26;;;;;;;5.00;2.40;;;23.40;81.20;;;;;;5101412;28;20031;-69
2023/09/25 10:30:11;;;;;;;3.50;2.50;;;24.10;78.30;;;;;;5104347;28;20031;-69
2023/09/25 10:32:40;;;;;;;5.63;2.47;;;24.50;77.30;;;;;;5104804;28;20038;-68
2023/09/25 10:35:40;;;;;;;2.47;2.15;;;24.70;76.10;;;;;;5104628;28;20027;-68
2023/09/25 10:38:09;;;;;;;3.55;2.30;;;24.60;76.40;;;;;;5102336;28;20116;-69
2023/09/25 10:40:36;;;;;;;4.30;2.33;;;24.40;76.40;;;;;;5104730;28;20490;-68
2023/09/25 10:43:03;;;;;;;4.10;2.40;;;24.30;75.60;;;;;;5104475;28;20027;-69
2023/09/25 10:45:29;;;;;;;3.03;2.40;;;24.00;75.20;;;;;;5104890;28;20020;-69
2023/09/25 10:47:55;;;;;;;3.35;1.80;;;23.70;76.60;;;;;;5104598;28;20036;-68
2023/09/25 10:50:22;;;;;;;3.85;1.90;;;23.50;77.10;;;;;;5104557;28;20126;-69
2023/09/25 10:52:47;;;;;;;3.67;2.10;;;23.30;77.80;;;;;;5106021;28;20035;-68
2023/09/25 10:55:14;;;;;;;2.33;1.80;;;23.20;77.00;;;;;;5108636;28;20023;-69
2023/09/25 10:57:40;;;;;;;3.13;1.80;;;23.10;77.30;;;;;;5106693;28;20560;-69
2023/09/25 11:00:17;;;;;;;3.10;1.83;;;23.20;78.70;;;;;;5108181;28;20024;-68
2023/09/25 11:02:42;;;;;;;4.72;2.40;;;23.20;78.80;;;;;;5107549;28;20488;-68
2023/09/25 11:05:10;;;;;;;2.67;1.83;;;23.10;75.50;;;;;;5104908;28;20024;-68
2023/09/25 11:07:37;;;;;;;2.33;2.08;;;22.80;76.50;;;;;;5106030;28;20773;-69
2023/09/25 11:10:03;;;;;;;2.58;2.17;;;22.60;77.40;;;;;;5103907;28;20032;-69
2023/09/25 11:12:33;;;;;;;2.45;1.90;;;22.50;78.60;;;;;;5107330;27;20032;-69
2023/09/25 11:14:59;;;;;;;3.40;2.05;;;22.40;76.60;;;;;;5104617;28;20031;-69
2023/09/25 11:17:25;;;;;;;2.72;1.77;;;22.40;77.60;;;;;;5107700;28;20403;-69
2023/09/25 11:19:53;;;;;;;1.73;1.63;;;22.40;77.90;;;;;;5107744;28;20114;-69
2023/09/25 11:22:27;;;;;;;2.40;1.83;;;22.40;78.10;;;;;;5103662;28;20027;-69
2023/09/25 11:24:54;;;;;;;2.90;1.58;;;22.50;77.40;;;;;;5107893;27;20081;-68
2023/09/25 11:27:20;;;;;;;2.05;1.85;;;22.50;78.00;;;;;;5107378;28;20048;-68
2023/09/25 11:29:49;;;;;;;2.72;1.60;;;22.60;77.60;;;;;;5107690;28;20080;-68
2023/09/25 11:32:18;;;;;;;2.15;1.75;;;22.70;76.00;;;;;;5106914;28;20035;-69
2023/09/25 11:34:45;;;;;;;1.85;1.70;;;22.70;75.90;;;;;;5107204;28;20055;-68
2023/09/25 11:37:19;;;;;;;2.95;1.48;;;22.80;76.10;;;;;;5107613;28;20036;-69
2023/09/25 11:39:46;;;;;;;1.80;1.63;;;22.70;75.40;;;;;;5107859;28;20395;-69
2023/09/25 11:42:12;;;;;;;1.88;1.58;;;22.70;75.00;;;;;;5107279;28;20024;-69
2023/09/25 11:44:37;;;;;;;3.85;1.50;;;22.70;75.10;;;;;;5107578;28;20409;-69
2023/09/25 11:47:06;;;;;;;4.80;1.92;;;22.70;76.20;;;;;;5098175;28;20043;-69
2023/09/25 11:49:32;;;;;;;3.05;1.92;;;22.80;74.80;;;;;;5107745;28;20027;-69
2023/09/25 11:51:58;;;;;;;1.45;1.35;;;22.70;75.30;;;;;;5107125;28;20028;-69
2023/09/25 11:54:24;;;;;;;5.18;1.75;;;22.60;75.50;;;;;;5105406;28;20066;-69
2023/09/25 11:56:50;;;;;;;3.13;1.80;;;22.60;75.90;;;;;;5106977;28;20043;-69
2023/09/25 11:59:16;;;;;;;1.70;1.50;;;22.60;75.90;;;;;;5104240;28;20024;-69
2023/09/25 12:01:42;;;;;;;2.00;1.48;;;22.60;75.70;;;;;;5107015;28;20050;-68
2023/09/25 12:04:12;;;;;;;3.17;1.77;;;22.60;75.10;;;;;;5106735;28;20548;-69
2023/09/25 12:06:39;;;;;;;4.40;1.90;;;22.70;75.70;;;;;;5103607;28;20077;-69
2023/09/25 12:09:11;;;;;;;5.07;2.00;;;22.80;75.00;;;;;;5106364;28;20032;-69
2023/09/25 12:11:43;;;;;;;2.47;1.80;;;22.60;74.00;;;;;;5107217;28;20069;-69
2023/09/25 12:14:08;;;;;;;2.45;1.70;;;22.40;75.10;;;;;;5106387;28;20086;-69
2023/09/25 12:16:34;;;;;;;1.83;1.40;;;22.30;76.40;;;;;;5104185;28;20032;-69
2023/09/25 12:19:00;;;;;;;1.70;1.35;;;22.40;76.10;;;;;;5104760;28;20039;-69
2023/09/25 12:21:26;;;;;;;1.55;1.45;;;22.50;74.90;;;;;;5106568;28;20031;-69
2023/09/25 12:23:53;;;;;;;1.85;1.38;;;22.60;75.10;;;;;;5102782;28;20050;-69
2023/09/25 12:26:18;;;;;;;1.70;1.60;;;22.50;74.00;;;;;;5100120;28;20027;-68
2023/09/25 12:28:44;;;;;;;5.30;1.30;;;22.50;73.80;;;;;;5106293;28;20031;-69
2023/09/25 12:31:11;;;;;;;1.88;1.42;;;22.60;74.80;;;;;;5106685;28;20020;-69
2023/09/25 12:33:37;;;;;;;1.58;1.20;;;22.70;75.10;;;;;;5102457;28;20035;-69
2023/09/25 12:36:03;;;;;;;2.92;1.15;;;22.70;74.40;;;;;;5106727;28;20679;-69
2023/09/25 12:38:29;;;;;;;2.40;1.52;;;22.70;74.70;;;;;;5106238;28;20034;-69
2023/09/25 12:40:55;;;;;;;2.90;1.30;;;22.90;73.50;;;;;;5101204;28;20042;-69
2023/09/25 12:43:21;;;;;;;2.05;1.40;;;22.90;73.20;;;;;;5105084;28;20161;-69
2023/09/25 12:45:47;;;;;;;1.88;1.40;;;22.90;72.00;;;;;;5106526;28;20106;-69